createdAt,value
2019-05-20T00:01:05.334Z,6.58
2019-05-20T00:03:34.996Z,6.62
2019-05-20T00:06:05.045Z,6.05
2019-05-20T00:08:34.743Z,6.83
2019-05-20T00:11:04.891Z,6.83
2019-05-20T00:13:34.793Z,7.85
2019-05-20T00:16:04.897Z,7.20
2019-05-20T00:18:34.598Z,7.17
2019-05-20T00:21:05.101Z,9.03
2019-05-20T00:23:34.841Z,9.18
2019-05-20T00:26:04.971Z,9.38
2019-05-20T00:28:34.758Z,9.40
2019-05-20T00:31:04.969Z,11.10
2019-05-20T00:33:34.718Z,10.00
2019-05-20T00:36:05.231Z,11.65
2019-05-20T00:38:34.941Z,11.50
2019-05-20T00:41:04.937Z,12.10
2019-05-20T00:43:34.767Z,11.25
2019-05-20T00:46:04.957Z,12.25
2019-05-20T00:48:34.602Z,11.83
2019-05-20T00:51:05.019Z,11.05
2019-05-20T00:53:34.788Z,11.55
2019-05-20T00:56:04.966Z,11.95
2019-05-20T00:58:34.729Z,10.35
2019-05-20T01:01:04.989Z,9.88
2019-05-20T01:03:34.696Z,9.73
2019-05-20T01:06:05.004Z,9.60
2019-05-20T01:08:34.672Z,11.48
2019-05-20T01:11:04.954Z,11.05
2019-05-20T01:13:34.632Z,9.95
2019-05-20T01:16:04.954Z,11.45
2019-05-20T01:18:34.717Z,12.55
2019-05-20T01:21:05.022Z,12.98
2019-05-20T01:23:34.716Z,12.25
2019-05-20T01:26:05.043Z,11.38
2019-05-20T01:28:34.757Z,12.15
2019-05-20T01:31:04.967Z,11.08
2019-05-20T01:33:34.711Z,11.30
2019-05-20T01:36:05.022Z,11.20
2019-05-20T01:38:34.716Z,10.25
2019-05-20T01:41:04.936Z,9.78
2019-05-20T01:43:34.675Z,9.93
2019-05-20T01:46:04.910Z,9.90
2019-05-20T01:48:34.602Z,9.28
2019-05-20T01:51:05.146Z,9.30
2019-05-20T01:53:34.916Z,13.28
2019-05-20T01:56:04.959Z,9.38
2019-05-20T01:58:34.660Z,10.48
2019-05-20T02:01:05.101Z,10.82
2019-05-20T02:03:34.803Z,10.00
2019-05-20T02:06:05.010Z,12.07
2019-05-20T02:08:34.620Z,8.30
2019-05-20T02:11:05.016Z,8.98
2019-05-20T02:13:53.546Z,8.13
2019-05-20T02:16:24.534Z,9.40
2019-05-20T02:18:54.220Z,9.45
2019-05-20T02:21:23.974Z,8.10
2019-05-20T02:23:53.660Z,7.92
2019-05-20T02:26:23.605Z,7.40
2019-05-20T02:28:53.237Z,8.70
2019-05-20T02:31:23.059Z,7.37
2019-05-20T02:33:53.136Z,7.50
2019-05-20T02:36:23.028Z,6.62
2019-05-20T02:38:52.813Z,6.75
2019-05-20T02:41:22.479Z,6.72
2019-05-20T02:43:52.239Z,5.90
2019-05-20T02:46:22.014Z,9.20
2019-05-20T02:48:51.678Z,6.78
2019-05-20T02:51:31.041Z,7.15
2019-05-20T02:54:01.973Z,5.92
2019-05-20T02:56:31.828Z,9.08
2019-05-20T02:59:01.821Z,7.92
2019-05-20T03:01:31.588Z,7.25
2019-05-20T03:04:11.330Z,6.62
2019-05-20T03:06:33.544Z,6.90
2019-05-20T03:09:04.243Z,6.55
2019-05-20T03:11:33.877Z,7.08
2019-05-20T03:14:03.706Z,8.45
2019-05-20T03:16:33.513Z,6.78
2019-05-20T03:19:03.243Z,6.37
2019-05-20T03:21:32.887Z,6.47
2019-05-20T03:24:02.510Z,6.20
2019-05-20T03:26:32.147Z,5.58
2019-05-20T03:29:01.888Z,5.85
2019-05-20T03:31:31.513Z,5.85
2019-05-20T03:34:01.221Z,5.65
2019-05-20T03:36:31.051Z,6.10
2019-05-20T03:39:00.771Z,5.65
2019-05-20T03:41:30.453Z,6.30
2019-05-20T03:44:00.264Z,6.05
2019-05-20T03:46:30.163Z,6.37
2019-05-20T03:48:59.906Z,6.00
2019-05-20T03:51:29.777Z,5.65
2019-05-20T03:53:59.576Z,6.20
2019-05-20T03:56:29.249Z,7.25
2019-05-20T03:58:58.956Z,6.72
2019-05-20T04:01:28.645Z,7.75
2019-05-20T04:03:58.494Z,8.40
2019-05-20T04:06:28.208Z,6.62
2019-05-20T04:08:57.953Z,7.25
2019-05-20T04:11:28.048Z,6.33
2019-05-20T04:13:57.830Z,8.00
2019-05-20T04:16:27.562Z,7.35
2019-05-20T04:18:57.289Z,6.65
2019-05-20T04:21:27.223Z,6.35
2019-05-20T04:24:00.951Z,8.40
2019-05-20T04:26:28.387Z,6.62
2019-05-20T04:28:58.165Z,6.20
2019-05-20T04:31:27.829Z,7.85
2019-05-20T04:33:58.853Z,7.55
2019-05-20T04:36:28.622Z,7.50
2019-05-20T04:38:59.305Z,6.50
2019-05-20T04:41:29.066Z,6.55
2019-05-20T04:43:58.903Z,6.80
2019-05-20T04:46:28.736Z,5.97
2019-05-20T04:48:58.428Z,7.65
2019-05-20T04:51:28.161Z,7.87
2019-05-20T04:53:57.848Z,6.83
2019-05-20T04:56:29.403Z,6.75
2019-05-20T04:58:58.807Z,8.08
2019-05-20T05:01:28.461Z,8.75
2019-05-20T05:03:58.154Z,10.98
2019-05-20T05:06:27.857Z,8.90
2019-05-20T05:08:58.470Z,8.03
2019-05-20T05:11:28.205Z,7.78
2019-05-20T05:13:57.993Z,8.85
2019-05-20T05:16:27.662Z,8.48
2019-05-20T05:18:57.382Z,8.45
2019-05-20T05:21:27.490Z,8.43
2019-05-20T05:23:59.494Z,9.95
2019-05-20T05:26:28.862Z,8.68
2019-05-20T05:28:58.574Z,8.25
2019-05-20T05:31:28.218Z,8.78
2019-05-20T05:33:57.901Z,8.58
2019-05-20T05:36:27.617Z,7.95
2019-05-20T05:38:57.253Z,8.03
2019-05-20T05:41:27.078Z,7.90
2019-05-20T05:43:56.759Z,7.00
2019-05-20T05:46:26.376Z,7.90
2019-05-20T05:48:56.039Z,7.60
2019-05-20T05:51:25.747Z,7.53
2019-05-20T05:53:55.397Z,7.40
2019-05-20T05:56:25.153Z,7.65
2019-05-20T05:58:54.869Z,8.05
2019-05-20T06:01:24.666Z,7.67
2019-05-20T06:03:54.269Z,7.15
2019-05-20T06:06:23.961Z,7.95
2019-05-20T06:08:54.618Z,8.13
2019-05-20T06:11:24.239Z,7.50
2019-05-20T06:13:53.893Z,9.58
2019-05-20T06:16:35.844Z,7.75
2019-05-20T06:18:54.923Z,8.05
2019-05-20T06:21:24.533Z,8.90
2019-05-20T06:23:54.187Z,8.75
2019-05-20T06:26:23.874Z,8.78
2019-05-20T06:28:54.545Z,8.08
2019-05-20T06:31:24.169Z,9.00
2019-05-20T06:33:53.878Z,9.08
2019-05-20T06:36:26.831Z,8.88
2019-05-20T06:39:11.602Z,7.87
2019-05-20T06:41:41.645Z,8.55
2019-05-20T06:44:11.507Z,9.33
2019-05-20T06:46:41.154Z,9.55
2019-05-20T06:49:10.933Z,8.83
2019-05-20T06:51:40.625Z,7.80
2019-05-20T06:54:10.310Z,8.05
2019-05-20T06:56:40.221Z,8.98
2019-05-20T06:59:09.971Z,7.80
2019-05-20T07:01:39.626Z,8.93
2019-05-20T07:04:09.453Z,8.43
2019-05-20T07:06:46.906Z,8.65
2019-05-20T07:09:10.619Z,7.67
2019-05-20T07:11:40.274Z,8.13
2019-05-20T07:14:11.046Z,7.73
2019-05-20T07:16:40.694Z,7.67
2019-05-20T07:19:10.448Z,7.97
2019-05-20T07:21:40.143Z,8.43
2019-05-20T07:24:09.989Z,7.92
2019-05-20T07:26:39.666Z,8.68
2019-05-20T07:29:09.412Z,8.24
2019-05-20T07:31:39.265Z,8.45
2019-05-20T07:34:08.973Z,8.50
2019-05-20T07:36:38.612Z,7.53
2019-05-20T07:39:09.270Z,8.48
2019-05-20T07:41:41.392Z,8.80
2019-05-20T07:44:10.335Z,8.05
2019-05-20T07:46:40.392Z,7.47
2019-05-20T07:49:10.862Z,7.85
2019-05-20T07:51:41.982Z,8.48
2019-05-20T07:54:13.070Z,8.10
2019-05-20T07:56:46.029Z,7.58
2019-05-20T07:59:17.974Z,8.18
2019-05-20T08:01:47.640Z,8.18
2019-05-20T08:04:17.314Z,8.58
2019-05-20T08:06:51.572Z,8.20
2019-05-20T08:09:21.508Z,10.10
2019-05-20T08:11:51.330Z,9.43
2019-05-20T08:14:21.047Z,9.18
2019-05-20T08:16:50.758Z,8.55
2019-05-20T08:19:20.488Z,8.95
2019-05-20T08:21:50.702Z,9.13
2019-05-20T08:24:20.474Z,9.05
2019-05-20T08:26:50.205Z,9.68
2019-05-20T08:29:19.947Z,8.93
2019-05-20T08:31:49.732Z,8.80
2019-05-20T08:34:19.558Z,9.15
2019-05-20T08:36:50.317Z,10.08
2019-05-20T08:39:20.093Z,9.83
2019-05-20T08:41:49.847Z,10.13
2019-05-20T08:44:20.693Z,9.98
2019-05-20T08:46:50.370Z,10.48
2019-05-20T08:49:20.078Z,10.25
2019-05-20T08:51:49.881Z,9.93
2019-05-20T08:54:19.614Z,10.95
2019-05-20T08:56:49.611Z,10.15
2019-05-20T08:59:19.408Z,10.75
2019-05-20T09:01:49.098Z,11.70
2019-05-20T09:04:18.827Z,10.88
2019-05-20T09:06:48.647Z,10.75
2019-05-20T09:09:18.378Z,11.12
2019-05-20T09:11:48.293Z,10.40
2019-05-20T09:14:18.146Z,9.80
2019-05-20T09:16:47.820Z,10.45
2019-05-20T09:19:17.776Z,10.60
2019-05-20T09:21:47.418Z,10.63
2019-05-20T09:24:19.032Z,9.70
2019-05-20T09:26:48.476Z,10.05
2019-05-20T09:29:18.213Z,9.63
2019-05-20T09:31:48.042Z,8.83
2019-05-20T09:34:17.912Z,8.33
2019-05-20T09:36:47.646Z,8.78
2019-05-20T09:39:17.327Z,7.70
2019-05-20T09:41:46.935Z,8.55
2019-05-20T09:44:16.596Z,8.00
2019-05-20T09:46:46.346Z,8.28
2019-05-20T09:49:15.990Z,7.70
2019-05-20T09:51:45.720Z,7.75
2019-05-20T09:54:15.445Z,7.62
2019-05-20T09:56:45.310Z,8.35
2019-05-20T09:59:16.483Z,8.63
2019-05-20T10:01:46.349Z,7.62
2019-05-20T10:04:16.083Z,7.45
2019-05-20T10:06:45.722Z,7.65
2019-05-20T10:09:15.497Z,8.33
2019-05-20T10:11:45.493Z,7.92
2019-05-20T10:14:15.166Z,7.42
2019-05-20T10:16:44.905Z,7.08
2019-05-20T10:19:14.592Z,8.05
2019-05-20T10:21:44.253Z,7.72
2019-05-20T10:24:14.006Z,7.23
2019-05-20T10:26:43.694Z,6.95
2019-05-20T10:29:13.380Z,7.10
2019-05-20T10:31:43.248Z,7.10
2019-05-20T10:34:12.899Z,7.00
2019-05-20T10:36:42.714Z,7.85
2019-05-20T10:39:12.502Z,8.28
2019-05-20T10:41:42.226Z,8.53
2019-05-20T10:44:11.950Z,8.18
2019-05-20T10:46:41.948Z,8.48
2019-05-20T10:49:11.674Z,8.43
2019-05-20T10:51:41.390Z,9.10
2019-05-20T10:54:11.093Z,7.90
2019-05-20T10:56:40.821Z,8.28
2019-05-20T10:59:12.094Z,8.03
2019-05-20T11:01:41.793Z,7.62
2019-05-20T11:04:11.425Z,7.42
2019-05-20T11:06:42.071Z,7.87
2019-05-20T11:09:14.409Z,7.37
2019-05-20T11:11:43.093Z,7.42
2019-05-20T11:14:12.697Z,7.55
2019-05-20T11:16:42.358Z,7.70
2019-05-20T11:19:11.993Z,7.80
2019-05-20T11:21:41.644Z,6.80
2019-05-20T11:24:11.315Z,7.75
2019-05-20T11:26:41.029Z,8.13
2019-05-20T11:29:10.715Z,7.35
2019-05-20T11:31:41.614Z,7.67
2019-05-20T11:34:11.554Z,8.48
2019-05-20T11:36:41.378Z,7.62
2019-05-20T11:39:11.162Z,7.15
2019-05-20T11:41:52.627Z,7.58
2019-05-20T11:44:12.821Z,7.62
2019-05-20T11:46:42.863Z,7.60
2019-05-20T11:49:12.557Z,7.37
2019-05-20T11:51:42.196Z,7.17
2019-05-20T11:54:11.883Z,7.28
2019-05-20T11:56:41.571Z,6.85
2019-05-20T11:59:11.296Z,6.58
2019-05-20T12:01:40.897Z,6.65
2019-05-20T12:04:10.526Z,6.47
2019-05-20T12:06:40.128Z,5.80
2019-05-20T12:09:09.854Z,5.25
2019-05-20T12:11:39.473Z,5.50
2019-05-20T12:14:09.174Z,6.28
2019-05-20T12:16:38.793Z,6.62
2019-05-20T12:19:08.425Z,7.15
2019-05-20T12:21:38.077Z,7.78
2019-05-20T12:24:07.732Z,10.30
2019-05-20T12:26:37.397Z,10.93
2019-05-20T12:29:07.031Z,9.88
2019-05-20T12:31:36.678Z,11.28
2019-05-20T12:34:06.690Z,10.90
2019-05-20T12:36:36.472Z,10.55
2019-05-20T12:39:07.117Z,11.38
2019-05-20T12:41:36.964Z,11.75
2019-05-20T12:44:12.962Z,12.07
2019-05-20T12:46:38.146Z,12.82
2019-05-20T12:49:07.970Z,12.85
2019-05-20T12:51:37.769Z,12.10
2019-05-20T12:54:07.717Z,13.20
2019-05-20T12:56:37.416Z,12.65
2019-05-20T12:59:07.062Z,13.03
2019-05-20T13:01:36.741Z,12.50
2019-05-20T13:04:06.719Z,13.45
2019-05-20T13:06:36.593Z,13.80
2019-05-20T13:09:07.434Z,12.75
2019-05-20T13:11:37.130Z,13.95
2019-05-20T13:14:06.833Z,13.72
2019-05-20T13:16:36.557Z,14.23
2019-05-20T13:19:06.243Z,13.85
2019-05-20T13:21:36.028Z,14.05
2019-05-20T13:24:05.741Z,13.45
2019-05-20T13:26:35.355Z,14.53
2019-05-20T13:29:05.075Z,13.58
2019-05-20T13:31:34.753Z,13.65
2019-05-20T13:34:04.962Z,15.03
2019-05-20T13:36:34.593Z,16.02
2019-05-20T13:39:07.479Z,14.63
2019-05-20T13:41:37.194Z,14.00
2019-05-20T13:44:06.901Z,14.18
2019-05-20T13:46:36.569Z,14.70
2019-05-20T13:49:06.378Z,14.75
2019-05-20T13:51:38.512Z,14.98
2019-05-20T13:54:07.482Z,15.20
2019-05-20T13:56:37.218Z,14.10
2019-05-20T13:59:06.895Z,13.88
2019-05-20T14:01:36.600Z,14.07
2019-05-20T14:04:06.225Z,14.47
2019-05-20T14:06:35.988Z,14.03
2019-05-20T14:09:07.561Z,13.93
2019-05-20T14:11:37.609Z,13.72
2019-05-20T14:14:07.728Z,12.80
2019-05-20T14:16:38.463Z,12.53
2019-05-20T14:19:08.427Z,11.85
2019-05-20T14:21:38.249Z,11.88
2019-05-20T14:24:08.116Z,11.35
2019-05-20T14:26:37.910Z,11.65
2019-05-20T14:29:07.894Z,10.23
2019-05-20T14:31:37.729Z,9.63
2019-05-20T14:34:08.358Z,10.10
2019-05-20T14:36:40.269Z,9.25
2019-05-20T14:39:09.604Z,8.00
2019-05-20T14:41:39.567Z,9.15
2019-05-20T14:44:09.477Z,8.83
2019-05-20T14:46:39.150Z,8.68
2019-05-20T14:49:08.796Z,8.08
2019-05-20T14:51:38.401Z,8.10
2019-05-20T14:54:08.055Z,8.30
2019-05-20T14:56:37.777Z,8.50
2019-05-20T14:59:07.436Z,8.43
2019-05-20T15:01:37.061Z,8.15
2019-05-20T15:04:06.802Z,8.95
2019-05-20T15:06:36.431Z,8.48
2019-05-20T15:09:06.709Z,7.45
2019-05-20T15:11:38.672Z,7.78
2019-05-20T15:14:07.898Z,8.10
2019-05-20T15:16:37.620Z,8.73
2019-05-20T15:19:07.321Z,8.18
2019-05-20T15:21:38.187Z,8.03
2019-05-20T15:24:08.621Z,8.55
2019-05-20T15:26:38.489Z,8.63
2019-05-20T15:29:08.266Z,8.50
2019-05-20T15:31:38.207Z,9.08
2019-05-20T15:34:07.831Z,8.30
2019-05-20T15:36:37.521Z,8.38
2019-05-20T15:39:07.289Z,8.05
2019-05-20T15:41:37.000Z,6.47
2019-05-20T15:44:07.718Z,6.22
2019-05-20T15:46:37.366Z,5.87
2019-05-20T15:49:07.067Z,5.00
2019-05-20T15:51:36.674Z,5.40
2019-05-20T15:54:06.375Z,5.15
2019-05-20T15:56:36.102Z,5.20
2019-05-20T15:59:06.697Z,5.45
2019-05-20T16:01:36.354Z,5.17
2019-05-20T16:04:06.049Z,4.67
2019-05-20T16:06:35.663Z,4.85
2019-05-20T16:09:06.823Z,3.98
2019-05-20T16:11:36.632Z,4.50
2019-05-20T16:14:06.442Z,4.62
2019-05-20T16:16:36.130Z,4.00
2019-05-20T16:19:05.842Z,4.33
2019-05-20T16:21:35.800Z,3.87
2019-05-20T16:24:05.587Z,4.28
2019-05-20T16:26:35.405Z,3.95
2019-05-20T16:29:05.177Z,3.27
2019-05-20T16:31:34.930Z,4.25
2019-05-20T16:34:05.367Z,3.80
2019-05-20T16:36:35.535Z,3.92
2019-05-20T16:39:07.931Z,4.33
2019-05-20T16:41:37.622Z,4.10
2019-05-20T16:44:07.493Z,4.03
2019-05-20T16:46:37.166Z,4.45
2019-05-20T16:49:06.964Z,3.90
2019-05-20T16:51:36.960Z,4.03
2019-05-20T16:54:06.836Z,4.37
2019-05-20T16:56:37.437Z,4.72
2019-05-20T16:59:09.208Z,4.53
2019-05-20T17:01:46.180Z,5.35
2019-05-20T17:04:10.347Z,5.55
2019-05-20T17:06:40.152Z,6.62
2019-05-20T17:09:10.061Z,8.03
2019-05-20T17:11:39.867Z,8.03
2019-05-20T17:14:10.674Z,8.40
2019-05-20T17:16:41.840Z,8.85
2019-05-20T17:19:11.558Z,8.55
2019-05-20T17:21:41.346Z,8.58
2019-05-20T17:24:11.405Z,9.05
2019-05-20T17:26:41.325Z,8.10
2019-05-20T17:29:11.014Z,8.68
2019-05-20T17:31:40.850Z,7.97
2019-05-20T17:34:10.763Z,7.67
2019-05-20T17:36:40.635Z,7.42
2019-05-20T17:39:10.365Z,6.50
2019-05-20T17:41:40.114Z,6.08
2019-05-20T17:44:09.908Z,5.55
2019-05-20T17:46:39.700Z,5.72
2019-05-20T17:49:09.334Z,5.37
2019-05-20T17:51:39.123Z,5.65
2019-05-20T17:54:09.318Z,5.30
2019-05-20T17:56:39.222Z,4.90
2019-05-20T17:59:08.999Z,5.45
2019-05-20T18:01:38.883Z,5.25
2019-05-20T18:04:08.716Z,5.58
2019-05-20T18:06:38.490Z,5.10
2019-05-20T18:09:08.842Z,5.28
2019-05-20T18:11:38.745Z,5.17
2019-05-20T18:14:08.557Z,5.70
2019-05-20T18:16:38.475Z,4.83
2019-05-20T18:19:08.228Z,5.50
2019-05-20T18:21:38.147Z,5.00
2019-05-20T18:24:07.896Z,5.00
2019-05-20T18:26:37.608Z,4.97
2019-05-20T18:29:07.261Z,4.87
2019-05-20T18:31:37.133Z,5.10
2019-05-20T18:34:07.968Z,4.70
2019-05-20T18:36:37.703Z,5.30
2019-05-20T18:39:07.585Z,5.50
2019-05-20T18:41:37.715Z,6.00
2019-05-20T18:44:07.409Z,5.20
2019-05-20T18:46:37.151Z,5.95
2019-05-20T18:49:09.051Z,5.70
2019-05-20T18:51:38.927Z,4.80
2019-05-20T18:54:08.660Z,5.45
2019-05-20T18:56:38.425Z,5.10
2019-05-20T18:59:08.299Z,5.22
2019-05-20T19:01:50.659Z,4.58
2019-05-20T19:04:09.463Z,5.15
2019-05-20T19:06:39.168Z,4.62
2019-05-20T19:09:10.234Z,4.75
2019-05-20T19:11:39.963Z,4.70
2019-05-20T19:14:11.043Z,4.55
2019-05-20T19:16:41.682Z,4.42
2019-05-20T19:19:11.395Z,3.83
2019-05-20T19:21:41.153Z,4.70
2019-05-20T19:24:10.817Z,4.42
2019-05-20T19:26:40.581Z,4.65
2019-05-20T19:29:10.434Z,4.55
2019-05-20T19:31:40.150Z,4.55
2019-05-20T19:34:09.872Z,4.60
2019-05-20T19:36:39.563Z,4.47
2019-05-20T19:39:09.462Z,4.10
2019-05-20T19:41:41.757Z,4.42
2019-05-20T19:44:13.411Z,4.60
2019-05-20T19:46:43.143Z,4.33
2019-05-20T19:49:13.041Z,4.37
2019-05-20T19:51:42.819Z,4.22
2019-05-20T19:54:12.487Z,4.55
2019-05-20T19:56:42.165Z,4.47
2019-05-20T19:59:12.021Z,4.30
2019-05-20T20:01:41.707Z,5.03
2019-05-20T20:04:11.465Z,4.35
2019-05-20T20:06:41.164Z,4.28
2019-05-20T20:09:11.030Z,4.37
2019-05-20T20:11:40.718Z,3.98
2019-05-20T20:14:10.407Z,4.90
2019-05-20T20:16:40.205Z,4.95
2019-05-20T20:19:09.822Z,4.75
2019-05-20T20:21:39.507Z,4.47
2019-05-20T20:24:09.577Z,4.72
2019-05-20T20:26:40.308Z,4.30
2019-05-20T20:29:11.250Z,5.03
2019-05-20T20:31:41.083Z,4.30
2019-05-20T20:34:10.769Z,4.92
2019-05-20T20:36:40.507Z,4.95
2019-05-20T20:39:10.297Z,5.30
2019-05-20T20:41:40.042Z,4.78
2019-05-20T20:44:09.682Z,5.37
2019-05-20T20:46:40.697Z,5.60
2019-05-20T20:49:10.441Z,5.50
2019-05-20T20:51:40.250Z,5.35
2019-05-20T20:54:10.099Z,5.87
2019-05-20T20:56:39.928Z,6.30
2019-05-20T20:59:09.614Z,6.33
2019-05-20T21:01:39.342Z,7.20
2019-05-20T21:04:09.027Z,8.15
2019-05-20T21:06:38.782Z,7.50
2019-05-20T21:09:08.522Z,7.35
2019-05-20T21:11:38.177Z,8.83
2019-05-20T21:14:07.846Z,7.12
2019-05-20T21:16:37.577Z,8.68
2019-05-20T21:19:07.330Z,7.37
2019-05-20T21:21:37.080Z,8.58
2019-05-20T21:24:06.810Z,6.75
2019-05-20T21:26:36.553Z,7.58
2019-05-20T21:29:06.245Z,7.85
2019-05-20T21:31:35.938Z,7.28
2019-05-20T21:34:06.733Z,7.28
2019-05-20T21:36:47.250Z,7.03
2019-05-20T21:39:07.751Z,7.97
2019-05-20T21:41:37.472Z,7.35
2019-05-20T21:44:07.124Z,6.80
2019-05-20T21:46:36.809Z,6.83
2019-05-20T21:49:06.502Z,7.42
2019-05-20T21:51:36.222Z,7.25
2019-05-20T21:54:05.902Z,7.17
2019-05-20T21:56:36.601Z,6.65
2019-05-20T21:59:07.265Z,6.87
2019-05-20T22:01:37.230Z,8.40
2019-05-20T22:04:06.985Z,6.20
2019-05-20T22:06:36.681Z,6.78
2019-05-20T22:09:07.190Z,7.08
2019-05-20T22:11:36.813Z,6.67
2019-05-20T22:14:06.610Z,6.08
2019-05-20T22:16:36.522Z,5.70
2019-05-20T22:19:06.363Z,5.50
2019-05-20T22:21:42.198Z,5.10
2019-05-20T22:24:11.829Z,4.95
2019-05-20T22:26:41.462Z,4.78
2019-05-20T22:29:11.118Z,4.47
2019-05-20T22:31:40.862Z,4.22
2019-05-20T22:34:10.675Z,3.95
2019-05-20T22:36:40.301Z,4.30
2019-05-20T22:39:09.984Z,3.90
2019-05-20T22:41:39.593Z,4.40
2019-05-20T22:44:09.281Z,4.70
2019-05-20T22:46:38.998Z,3.87
2019-05-20T22:49:08.626Z,4.67
2019-05-20T22:51:38.347Z,4.50
2019-05-20T22:54:08.231Z,4.53
2019-05-20T22:56:37.879Z,4.60
2019-05-20T22:59:07.611Z,4.55
2019-05-20T23:01:37.250Z,4.80
2019-05-20T23:04:06.905Z,4.33
2019-05-20T23:06:36.634Z,4.40
2019-05-20T23:09:06.933Z,4.30
2019-05-20T23:11:36.636Z,4.47
2019-05-20T23:14:06.267Z,4.60
2019-05-20T23:16:35.940Z,4.22
2019-05-20T23:19:05.617Z,4.12
2019-05-20T23:21:35.259Z,4.62
2019-05-20T23:24:05.021Z,4.37
2019-05-20T23:26:34.712Z,4.60
2019-05-20T23:29:05.598Z,4.70
2019-05-20T23:31:35.222Z,4.65
2019-05-20T23:34:12.926Z,5.00
2019-05-20T23:36:36.518Z,4.85
2019-05-20T23:39:07.640Z,4.85
2019-05-20T23:41:37.479Z,5.80
2019-05-20T23:44:07.326Z,5.30
2019-05-20T23:46:36.941Z,5.70
2019-05-20T23:49:07.572Z,6.65
2019-05-20T23:51:37.227Z,7.12
2019-05-20T23:54:06.894Z,7.00
2019-05-20T23:56:36.517Z,7.85
2019-05-20T23:59:06.230Z,8.63
